Time;durP1;ratioP1;P1;durP2;ratioP2;P2;SDS_P1;SDS_P2;PMS_P1;PMS_P2;Temp;Humidity;BMP_temperature;BMP_pressure;BME280_temperature;BME280_humidity;BME280_pressure;Samples;Min_cycle;Max_cycle;Signal;HPM_P1;HPM_P2
2021/06/15 00:00:08;;;;;;;2.75;1.30;;;26.40;43.50;;;;;;5085249;28;20032;-50
2021/06/15 00:02:34;;;;;;;1.88;1.27;;;26.40;43.50;;;;;;5083087;28;20480;-53
2021/06/15 00:04:59;;;;;;;1.58;1.17;;;26.40;43.50;;;;;;5090539;28;20109;-47
2021/06/15 00:07:26;;;;;;;1.73;0.98;;;26.30;43.50;;;;;;5095208;28;20040;-51
2021/06/15 00:09:52;;;;;;;1.15;0.95;;;26.30;43.50;;;;;;5094276;28;20358;-47
2021/06/15 00:12:18;;;;;;;2.33;1.35;;;26.30;43.50;;;;;;5092092;28;20032;-50
2021/06/15 00:14:44;;;;;;;1.80;1.00;;;26.30;43.50;;;;;;5094367;28;20086;-50
2021/06/15 00:17:10;;;;;;;2.28;1.35;;;26.30;43.50;;;;;;5092113;28;20102;-49
2021/06/15 00:19:36;;;;;;;1.67;1.05;;;26.30;43.50;;;;;;5093201;28;20052;-51
2021/06/15 00:22:03;;;;;;;2.90;1.10;;;26.30;43.50;;;;;;5095456;28;20116;-48
2021/06/15 00:24:28;;;;;;;1.75;1.00;;;26.30;43.50;;;;;;5092217;28;20085;-48
2021/06/15 00:26:54;;;;;;;1.85;1.10;;;26.30;43.50;;;;;;5087911;28;20028;-51
2021/06/15 00:29:20;;;;;;;1.05;0.88;;;26.30;43.50;;;;;;5093282;28;20509;-54
2021/06/15 00:31:46;;;;;;;1.98;1.10;;;26.30;43.50;;;;;;5095044;28;20347;-48
2021/06/15 00:34:12;;;;;;;1.48;0.93;;;26.30;43.50;;;;;;5086922;28;20439;-54
2021/06/15 00:36:38;;;;;;;1.85;1.13;;;26.20;43.50;;;;;;5094545;28;20076;-50
2021/06/15 00:39:04;;;;;;;1.80;1.10;;;26.30;43.60;;;;;;5095098;28;20084;-51
2021/06/15 00:41:30;;;;;;;4.22;1.00;;;26.20;43.50;;;;;;5094848;28;20070;-49
2021/06/15 00:43:56;;;;;;;1.33;1.00;;;26.20;43.60;;;;;;5092274;28;20052;-52
2021/06/15 00:46:22;;;;;;;1.23;0.80;;;26.20;43.60;;;;;;5092405;28;20028;-50
2021/06/15 00:48:48;;;;;;;1.60;1.00;;;26.20;43.60;;;;;;5091022;28;20708;-53
2021/06/15 00:51:15;;;;;;;1.27;0.85;;;26.20;43.60;;;;;;5091692;28;20040;-52
2021/06/15 00:53:42;;;;;;;1.15;0.77;;;26.20;43.60;;;;;;5091367;28;20048;-50
2021/06/15 00:56:07;;;;;;;2.20;1.00;;;26.20;43.60;;;;;;5093830;28;20063;-50
2021/06/15 00:58:34;;;;;;;1.27;1.00;;;26.10;43.50;;;;;;5092214;28;20052;-53
2021/06/15 01:01:04;;;;;;;1.42;0.90;;;26.20;43.60;;;;;;5071957;28;20455;-53
2021/06/15 01:03:31;;;;;;;1.40;1.00;;;26.10;43.60;;;;;;5092382;28;20405;-51
2021/06/15 01:05:57;;;;;;;1.15;1.00;;;26.10;43.60;;;;;;5089203;28;20028;-49
2021/06/15 01:08:53;;;;;;;1.13;0.90;;;26.10;43.60;;;;;;5086222;28;20106;-49
2021/06/15 01:11:39;;;;;;;1.42;0.80;;;26.10;43.50;;;;;;5087374;28;20040;-51
2021/06/15 01:14:14;;;;;;;0.98;0.85;;;26.10;43.50;;;;;;5092476;28;20050;-51
2021/06/15 01:17:08;;;;;;;1.25;0.90;;;26.10;43.60;;;;;;5086960;28;20074;-48
2021/06/15 01:19:59;;;;;;;;;;;26.10;43.50;;;;;;5090595;28;20039;-51
2021/06/15 01:22:44;;;;;;;1.02;0.80;;;26.10;43.50;;;;;;5082961;28;20020;-53
2021/06/15 01:25:27;;;;;;;1.15;0.85;;;26.10;43.50;;;;;;5091098;28;20048;-50
2021/06/15 01:28:28;;;;;;;0.90;0.73;;;26.10;43.50;;;;;;5090266;28;20028;-53
2021/06/15 01:31:16;;;;;;;1.40;0.75;;;26.00;43.50;;;;;;5064167;28;20036;-50
2021/06/15 01:33:49;;;;;;;0.90;0.70;;;26.00;43.50;;;;;;5091572;28;20047;-51
2021/06/15 01:36:18;;;;;;;1.27;1.05;;;26.00;43.50;;;;;;5090710;28;20046;-49
2021/06/15 01:38:53;;;;;;;1.40;1.00;;;26.00;43.50;;;;;;5091335;28;20115;-53
2021/06/15 01:41:48;;;;;;;1.45;1.00;;;26.00;43.50;;;;;;5089402;28;20052;-50
2021/06/15 01:44:15;;;;;;;0.93;0.70;;;26.00;43.50;;;;;;5075459;28;20093;-48
2021/06/15 01:46:50;;;;;;;1.05;0.90;;;25.90;43.50;;;;;;5089935;28;20024;-54
2021/06/15 01:49:19;;;;;;;1.17;0.73;;;25.90;43.40;;;;;;5090107;28;20033;-47
2021/06/15 01:51:48;;;;;;;1.13;0.85;;;25.90;43.50;;;;;;5089556;28;20467;-51
2021/06/15 01:54:22;;;;;;;1.17;0.80;;;26.00;43.50;;;;;;5090098;28;20040;-53
2021/06/15 01:56:52;;;;;;;1.48;0.90;;;25.90;43.40;;;;;;5091722;28;20036;-52
2021/06/15 01:59:25;;;;;;;0.77;0.73;;;25.90;43.40;;;;;;5090922;28;20024;-49
2021/06/15 02:01:55;;;;;;;0.98;0.77;;;25.90;43.40;;;;;;5086963;28;20036;-54
2021/06/15 02:04:40;;;;;;;1.88;1.05;;;25.90;43.40;;;;;;5073628;28;20020;-54
2021/06/15 02:07:12;;;;;;;1.30;0.90;;;25.90;43.40;;;;;;5104521;28;20455;-51
2021/06/15 02:09:47;;;;;;;1.38;1.00;;;25.90;43.40;;;;;;5091046;28;20039;-51
2021/06/15 02:12:32;;;;;;;1.92;1.15;;;25.90;43.40;;;;;;5092879;28;20094;-52
2021/06/15 02:15:34;;;;;;;1.48;0.85;;;25.90;43.40;;;;;;5056167;28;20127;-51
2021/06/15 02:18:23;;;;;;;1.38;0.80;;;25.90;44.00;;;;;;5096163;28;20044;-54
2021/06/15 02:21:07;;;;;;;1.40;0.80;;;25.80;43.30;;;;;;5092272;28;20369;-50
2021/06/15 02:23:35;;;;;;;1.05;0.80;;;25.80;43.30;;;;;;5085780;28;20431;-49
2021/06/15 02:26:05;;;;;;;0.75;0.75;;;25.80;43.30;;;;;;5087941;28;20036;-50
2021/06/15 02:28:35;;;;;;;1.30;0.90;;;25.80;43.30;;;;;;5084831;28;20024;-50
2021/06/15 02:31:02;;;;;;;0.82;0.80;;;25.80;43.30;;;;;;5088991;28;20558;-48
2021/06/15 02:33:41;;;;;;;1.45;0.77;;;25.80;43.30;;;;;;5091663;28;20036;-52
2021/06/15 02:36:11;;;;;;;1.02;0.73;;;25.80;43.30;;;;;;5086640;28;20047;-51
2021/06/15 02:38:42;;;;;;;0.80;0.68;;;25.80;43.30;;;;;;5090865;28;20020;-48
2021/06/15 02:41:12;;;;;;;1.73;0.80;;;25.80;43.30;;;;;;5088458;28;20028;-48
2021/06/15 02:43:41;;;;;;;0.93;0.68;;;25.80;43.30;;;;;;5090926;28;20030;-54
2021/06/15 02:46:12;;;;;;;0.90;0.70;;;25.80;43.30;;;;;;5090463;28;20020;-53
2021/06/15 02:48:41;;;;;;;1.85;0.80;;;25.80;43.30;;;;;;5091127;28;20040;-52
2021/06/15 02:51:10;;;;;;;1.25;0.95;;;25.80;43.30;;;;;;5088211;28;20512;-50
2021/06/15 02:53:54;;;;;;;0.77;0.70;;;25.70;43.30;;;;;;5088217;28;20043;-53
2021/06/15 02:56:23;;;;;;;1.40;0.77;;;25.80;43.30;;;;;;5086517;28;20508;-54
2021/06/15 02:58:51;;;;;;;0.95;0.63;;;25.70;43.30;;;;;;5089100;28;20366;-54
2021/06/15 03:01:19;;;;;;;1.60;0.90;;;25.70;43.30;;;;;;5089339;28;20099;-51
2021/06/15 03:03:51;;;;;;;1.75;0.80;;;25.70;43.30;;;;;;5089742;28;20028;-50
2021/06/15 03:06:17;;;;;;;1.38;0.82;;;25.70;43.30;;;;;;5089397;28;20059;-48
2021/06/15 03:08:44;;;;;;;1.48;0.77;;;25.70;43.30;;;;;;5088657;28;20032;-49
2021/06/15 03:11:16;;;;;;;1.38;0.80;;;25.70;43.30;;;;;;5088844;28;20036;-51
2021/06/15 03:14:11;;;;;;;1.48;0.70;;;25.70;43.30;;;;;;5091007;28;20040;-56
2021/06/15 03:16:37;;;;;;;;;;;25.70;43.20;;;;;;5076595;28;20375;-49
2021/06/15 03:19:10;;;;;;;1.08;0.60;;;25.60;43.20;;;;;;5087414;28;19920;-49
2021/06/15 03:21:44;;;;;;;1.23;0.90;;;25.60;43.20;;;;;;5088139;28;20044;-50
2021/06/15 03:24:20;;;;;;;1.15;0.68;;;25.60;43.10;;;;;;5088391;28;20119;-49
2021/06/15 03:27:06;;;;;;;0.63;0.60;;;25.60;43.10;;;;;;5088723;28;20351;-52
2021/06/15 03:29:39;;;;;;;0.60;0.60;;;25.60;43.10;;;;;;5087914;28;20073;-47
2021/06/15 03:32:16;;;;;;;0.83;0.50;;;25.60;43.00;;;;;;5087196;28;20032;-51
2021/06/15 03:34:50;;;;;;;1.70;1.00;;;25.60;43.00;;;;;;5088893;28;20039;-48
2021/06/15 03:37:21;;;;;;;1.80;0.95;;;25.60;43.00;;;;;;5088863;28;20030;-49
2021/06/15 03:39:49;;;;;;;0.90;0.70;;;25.60;43.00;;;;;;5091114;28;20039;-53
2021/06/15 03:42:22;;;;;;;0.95;0.77;;;25.60;43.00;;;;;;5095973;28;20024;-52
2021/06/15 03:45:01;;;;;;;0.60;0.60;;;25.60;42.90;;;;;;5096124;28;20448;-52
2021/06/15 03:47:28;;;;;;;1.30;0.63;;;25.60;42.90;;;;;;5096411;28;20043;-50
2021/06/15 03:49:55;;;;;;;1.50;0.80;;;25.60;42.90;;;;;;5094137;28;20134;-53
2021/06/15 03:52:40;;;;;;;0.68;0.57;;;25.60;42.90;;;;;;5096472;28;20308;-49
2021/06/15 03:55:08;;;;;;;0.98;0.60;;;25.60;42.80;;;;;;5094401;28;20130;-52
2021/06/15 03:57:41;;;;;;;1.23;0.57;;;25.60;42.80;;;;;;5091359;28;20060;-50
2021/06/15 04:00:09;;;;;;;1.17;0.70;;;25.60;42.80;;;;;;5093596;28;20024;-51
2021/06/15 04:02:41;;;;;;;0.93;0.68;;;25.50;42.70;;;;;;5094552;28;20024;-49
2021/06/15 04:05:09;;;;;;;2.42;0.70;;;25.50;42.70;;;;;;5083349;28;20020;-48
2021/06/15 04:07:36;;;;;;;1.13;0.63;;;25.50;42.70;;;;;;5085114;28;20039;-49
2021/06/15 04:10:04;;;;;;;1.13;0.60;;;25.50;42.70;;;;;;5093117;28;20060;-53
2021/06/15 04:12:30;;;;;;;1.58;0.90;;;25.50;42.70;;;;;;5092629;28;20032;-50
2021/06/15 04:14:58;;;;;;;0.85;0.70;;;25.50;42.70;;;;;;5087446;28;20044;-50
2021/06/15 04:17:29;;;;;;;1.25;0.68;;;25.50;42.60;;;;;;5094386;28;20063;-49
2021/06/15 04:19:56;;;;;;;0.80;0.55;;;25.50;42.60;;;;;;5092048;28;20130;-50
2021/06/15 04:22:30;;;;;;;1.50;0.80;;;25.50;42.60;;;;;;5096785;28;20536;-50
2021/06/15 04:24:58;;;;;;;0.63;0.45;;;25.50;42.50;;;;;;5094079;28;20414;-54
2021/06/15 04:27:25;;;;;;;0.73;0.50;;;25.50;42.50;;;;;;5093874;28;20039;-53
2021/06/15 04:29:55;;;;;;;1.08;0.60;;;25.50;42.60;;;;;;5087038;28;20020;-53
2021/06/15 04:32:29;;;;;;;0.68;0.60;;;25.50;42.40;;;;;;5096294;28;20177;-47
2021/06/15 04:34:59;;;;;;;3.92;0.60;;;25.50;42.40;;;;;;5086283;28;20090;-49
2021/06/15 04:37:26;;;;;;;1.75;0.70;;;25.40;42.30;;;;;;5083811;28;20043;-50
2021/06/15 04:40:13;;;;;;;0.73;0.50;;;25.40;42.30;;;;;;5092481;28;20024;-50
2021/06/15 04:43:19;;;;;;;0.52;0.52;;;25.40;42.30;;;;;;5084882;28;20600;-49
2021/06/15 04:45:46;;;;;;;1.38;0.50;;;25.40;42.20;;;;;;5094256;28;20036;-48
2021/06/15 04:48:23;;;;;;;0.47;0.47;;;25.40;42.20;;;;;;5094205;28;20032;-49
2021/06/15 04:50:49;;;;;;;1.33;0.55;;;25.40;42.10;;;;;;5089152;28;20461;-51
2021/06/15 04:53:17;;;;;;;1.20;0.60;;;25.40;42.00;;;;;;5094964;28;20349;-50
2021/06/15 04:55:44;;;;;;;1.05;0.55;;;25.40;41.90;;;;;;5092635;28;20032;-48
2021/06/15 04:58:12;;;;;;;0.95;0.50;;;25.40;41.90;;;;;;5093240;28;20059;-50
2021/06/15 05:00:39;;;;;;;1.15;0.60;;;25.40;41.80;;;;;;5092739;28;20043;-53
2021/06/15 05:03:06;;;;;;;0.60;0.40;;;25.40;41.70;;;;;;5091675;28;20063;-53
2021/06/15 05:05:32;;;;;;;0.98;0.40;;;25.40;41.70;;;;;;5092171;28;20047;-52
2021/06/15 05:08:06;;;;;;;1.00;0.50;;;25.40;41.60;;;;;;5094308;28;20017;-49
2021/06/15 05:10:36;;;;;;;1.77;0.50;;;25.40;41.50;;;;;;5093069;28;20028;-51
2021/06/15 05:13:03;;;;;;;0.88;0.47;;;25.40;41.50;;;;;;5092553;28;20024;-54
2021/06/15 05:15:30;;;;;;;0.75;0.47;;;25.40;41.40;;;;;;5091691;28;20031;-52
2021/06/15 05:17:57;;;;;;;1.08;0.30;;;25.40;41.30;;;;;;5091289;28;20024;-55
2021/06/15 05:20:25;;;;;;;1.08;0.40;;;25.40;41.20;;;;;;5089892;28;20028;-53
2021/06/15 05:23:05;;;;;;;1.42;0.50;;;25.40;41.20;;;;;;5088031;28;20046;-53
2021/06/15 05:25:31;;;;;;;1.30;0.35;;;25.40;41.10;;;;;;5087291;28;20132;-53
2021/06/15 05:27:57;;;;;;;0.75;0.30;;;25.30;41.10;;;;;;5093545;28;20054;-51
2021/06/15 05:30:24;;;;;;;0.73;0.32;;;25.30;41.00;;;;;;5091045;28;20384;-48
2021/06/15 05:32:50;;;;;;;0.47;0.38;;;25.30;41.00;;;;;;5095549;28;20440;-46
2021/06/15 05:35:16;;;;;;;1.40;0.50;;;25.30;40.90;;;;;;5088656;28;20028;-46
2021/06/15 05:37:42;;;;;;;1.15;0.50;;;25.30;40.90;;;;;;5094261;28;20036;-51
2021/06/15 05:40:09;;;;;;;1.67;0.60;;;25.30;40.90;;;;;;5093098;28;20094;-54
2021/06/15 05:42:35;;;;;;;0.50;0.32;;;25.30;40.90;;;;;;5092976;28;20038;-53
2021/06/15 05:45:01;;;;;;;1.45;0.60;;;25.30;40.80;;;;;;5092888;28;20530;-50
2021/06/15 05:47:29;;;;;;;1.30;0.47;;;25.30;40.80;;;;;;5091687;28;20347;-50
2021/06/15 05:49:55;;;;;;;3.03;0.50;;;25.30;40.80;;;;;;5084199;28;20033;-49
2021/06/15 05:52:21;;;;;;;0.73;0.47;;;25.30;40.80;;;;;;5088624;28;20052;-48
2021/06/15 05:54:47;;;;;;;1.10;0.50;;;25.30;40.80;;;;;;5086402;28;20154;-51
2021/06/15 05:57:13;;;;;;;2.08;0.52;;;25.30;40.80;;;;;;5089859;28;20115;-46
2021/06/15 05:59:39;;;;;;;0.77;0.47;;;25.30;40.80;;;;;;5090501;28;20047;-52
2021/06/15 06:02:06;;;;;;;1.90;0.40;;;25.30;40.80;;;;;;5093565;28;20027;-53
2021/06/15 06:05:03;;;;;;;1.05;0.55;;;25.30;40.70;;;;;;5085357;28;20464;-47
2021/06/15 06:10:05;;;;;;;2.60;0.68;;;25.30;40.70;;;;;;5086093;28;20036;-47
2021/06/15 06:12:31;;;;;;;1.67;0.60;;;25.30;40.80;;;;;;5088326;28;20028;-48
2021/06/15 06:14:57;;;;;;;1.73;0.68;;;25.30;40.70;;;;;;5089984;28;20051;-49
2021/06/15 06:17:22;;;;;;;1.83;0.70;;;25.30;40.80;;;;;;5092724;28;20028;-51
2021/06/15 06:19:49;;;;;;;2.25;0.70;;;25.30;40.80;;;;;;5086563;28;20036;-53
2021/06/15 06:22:15;;;;;;;2.70;0.80;;;25.30;40.70;;;;;;5086084;28;20028;-52
2021/06/15 06:24:41;;;;;;;1.88;0.65;;;25.30;40.80;;;;;;5083640;28;20024;-53
2021/06/15 06:27:07;;;;;;;2.97;0.80;;;25.30;40.90;;;;;;5091268;28;20073;-53
2021/06/15 06:29:33;;;;;;;1.67;0.77;;;25.30;40.90;;;;;;5092899;28;20037;-51
2021/06/15 06:32:02;;;;;;;2.40;0.70;;;25.40;41.00;;;;;;5092835;28;20120;-50
2021/06/15 06:34:28;;;;;;;2.33;0.80;;;25.40;40.90;;;;;;5085848;28;20127;-49
2021/06/15 06:36:53;;;;;;;1.85;0.60;;;25.40;40.90;;;;;;5094366;28;20103;-48
2021/06/15 06:39:19;;;;;;;1.75;0.70;;;25.40;40.90;;;;;;5076523;28;20039;-53
2021/06/15 06:41:45;;;;;;;2.03;0.75;;;25.40;40.80;;;;;;5090903;28;20020;-50
2021/06/15 06:44:11;;;;;;;1.48;0.52;;;25.40;40.70;;;;;;5093555;28;20173;-52
2021/06/15 06:46:37;;;;;;;1.58;0.60;;;25.40;40.70;;;;;;5080825;28;20216;-49
2021/06/15 06:49:03;;;;;;;2.05;0.77;;;25.50;40.70;;;;;;5092986;28;20040;-49
2021/06/15 06:51:29;;;;;;;1.27;0.60;;;25.50;40.60;;;;;;5094646;28;20047;-48
2021/06/15 06:53:55;;;;;;;1.20;0.50;;;25.50;40.50;;;;;;5093064;28;20118;-51
2021/06/15 06:56:22;;;;;;;1.75;0.65;;;25.50;40.40;;;;;;5087467;28;20023;-51
2021/06/15 06:58:47;;;;;;;1.67;0.73;;;25.50;40.20;;;;;;5077412;28;20031;-51
2021/06/15 07:01:14;;;;;;;2.33;0.85;;;25.50;40.10;;;;;;5077281;28;20367;-54
2021/06/15 07:03:39;;;;;;;1.35;0.70;;;25.50;40.00;;;;;;5089396;28;20036;-49
2021/06/15 07:06:05;;;;;;;0.95;0.50;;;25.60;39.90;;;;;;5078258;28;20078;-52
2021/06/15 07:08:31;;;;;;;1.75;0.70;;;25.60;39.80;;;;;;5081965;28;20052;-47
2021/06/15 07:10:58;;;;;;;2.22;0.60;;;25.60;39.80;;;;;;5080180;28;20044;-52
2021/06/15 07:13:24;;;;;;;1.75;0.57;;;25.60;39.70;;;;;;5090147;28;20037;-52
2021/06/15 07:15:50;;;;;;;0.80;0.52;;;25.60;39.60;;;;;;5078206;28;20036;-51
2021/06/15 07:18:16;;;;;;;2.17;0.65;;;25.70;39.60;;;;;;5091026;28;20151;-55
2021/06/15 07:20:41;;;;;;;1.83;0.65;;;25.60;39.50;;;;;;5087078;28;20292;-54
2021/06/15 07:23:08;;;;;;;2.03;0.60;;;25.70;39.60;;;;;;5096657;28;20464;-53
2021/06/15 07:25:35;;;;;;;3.10;0.82;;;25.70;39.50;;;;;;5097723;28;20037;-55
2021/06/15 07:28:01;;;;;;;2.03;0.45;;;25.70;39.50;;;;;;5097826;28;20096;-54
2021/06/15 07:30:27;;;;;;;1.33;0.57;;;25.70;39.50;;;;;;5096827;28;20042;-49
2021/06/15 07:32:57;;;;;;;0.95;0.40;;;25.70;39.40;;;;;;5097608;28;20039;-54
2021/06/15 07:35:25;;;;;;;1.23;0.50;;;25.70;39.40;;;;;;5097781;28;20109;-50
2021/06/15 07:37:52;;;;;;;1.25;0.60;;;25.80;39.40;;;;;;5096448;28;20092;-54
2021/06/15 07:40:22;;;;;;;2.30;0.52;;;25.80;39.30;;;;;;5097587;28;20351;-54
2021/06/15 07:42:50;;;;;;;1.27;0.38;;;25.80;39.20;;;;;;5096919;28;20106;-52
2021/06/15 07:45:16;;;;;;;0.68;0.43;;;25.80;39.10;;;;;;5097390;28;20027;-53
2021/06/15 07:47:42;;;;;;;1.88;0.63;;;25.80;39.10;;;;;;5096683;28;20096;-52
2021/06/15 07:50:08;;;;;;;1.13;0.40;;;25.80;39.00;;;;;;5097244;28;20020;-53
2021/06/15 07:52:34;;;;;;;1.05;0.40;;;25.80;38.90;;;;;;5088236;28;20446;-50
2021/06/15 07:55:00;;;;;;;1.55;0.40;;;25.80;38.80;;;;;;5080909;28;20040;-49
2021/06/15 07:57:26;;;;;;;0.90;0.40;;;25.90;38.80;;;;;;5087817;28;20119;-50
2021/06/15 07:59:52;;;;;;;0.43;0.30;;;25.80;38.60;;;;;;5088923;28;20332;-51
2021/06/15 08:02:17;;;;;;;1.25;0.45;;;25.80;39.20;;;;;;5090122;28;20097;-53
2021/06/15 08:04:44;;;;;;;1.02;0.40;;;25.90;38.60;;;;;;5082175;28;20036;-55
2021/06/15 08:07:10;;;;;;;1.05;0.40;;;25.80;38.50;;;;;;5088057;28;20032;-52
2021/06/15 08:09:35;;;;;;;1.58;0.57;;;25.90;38.50;;;;;;5096943;28;20097;-46
2021/06/15 08:12:01;;;;;;;0.85;0.50;;;25.90;38.40;;;;;;5096933;28;20031;-49
2021/06/15 08:14:27;;;;;;;0.95;0.45;;;25.90;38.20;;;;;;5078873;28;20054;-48
2021/06/15 08:16:53;;;;;;;1.17;0.40;;;25.90;38.20;;;;;;5097033;28;20348;-49
2021/06/15 08:19:19;;;;;;;0.80;0.40;;;25.90;38.10;;;;;;5097021;28;20040;-49
2021/06/15 08:21:45;;;;;;;0.75;0.45;;;25.90;38.10;;;;;;5096169;28;20085;-48
2021/06/15 08:24:14;;;;;;;1.48;0.50;;;25.90;38.00;;;;;;5095812;28;20458;-50
2021/06/15 08:26:42;;;;;;;1.20;0.43;;;25.90;37.90;;;;;;5096878;28;20032;-47
2021/06/15 08:29:07;;;;;;;1.08;0.47;;;25.90;37.80;;;;;;5096410;28;20043;-48
2021/06/15 08:31:33;;;;;;;0.70;0.25;;;25.90;37.80;;;;;;5096817;28;20032;-51
2021/06/15 08:33:59;;;;;;;0.50;0.30;;;25.90;37.80;;;;;;5096485;28;20068;-49
2021/06/15 08:36:25;;;;;;;0.70;0.40;;;25.90;37.80;;;;;;5096323;28;20024;-50
2021/06/15 08:38:51;;;;;;;0.77;0.38;;;25.90;37.80;;;;;;5096651;28;20077;-49
2021/06/15 08:41:21;;;;;;;0.65;0.35;;;26.00;38.00;;;;;;5094966;28;20045;-46
2021/06/15 08:43:47;;;;;;;0.90;0.45;;;26.00;37.80;;;;;;5096392;28;20177;-47
2021/06/15 08:46:14;;;;;;;0.30;0.30;;;26.00;37.80;;;;;;5096167;28;20462;-49
2021/06/15 08:48:40;;;;;;;0.57;0.25;;;26.00;37.80;;;;;;5095985;28;20116;-49
2021/06/15 08:51:06;;;;;;;0.73;0.30;;;26.00;37.80;;;;;;5096317;28;20032;-53
2021/06/15 08:53:36;;;;;;;0.75;0.30;;;26.00;37.70;;;;;;5096335;28;20044;-54
2021/06/15 08:56:35;;;;;;;0.75;0.40;;;26.00;37.70;;;;;;5095193;28;20035;-52
2021/06/15 08:59:25;;;;;;;0.75;0.22;;;26.00;37.60;;;;;;5073067;28;20078;-53
2021/06/15 09:01:54;;;;;;;1.15;0.47;;;26.00;37.60;;;;;;5082092;28;20074;-50
2021/06/15 09:04:20;;;;;;;0.82;0.40;;;26.00;37.60;;;;;;5095840;28;20028;-48
2021/06/15 09:06:47;;;;;;;0.68;0.40;;;26.00;37.60;;;;;;5096018;28;20046;-48
2021/06/15 09:09:13;;;;;;;0.55;0.30;;;26.00;37.60;;;;;;5095993;28;20032;-45
2021/06/15 09:11:57;;;;;;;1.30;0.52;;;26.00;37.60;;;;;;5089298;28;20032;-51
2021/06/15 09:14:43;;;;;;;;;;;26.10;37.70;;;;;;5086147;28;20192;-48
2021/06/15 09:17:27;;;;;;;0.47;0.30;;;26.00;37.70;;;;;;5093804;28;19908;-48
2021/06/15 09:19:58;;;;;;;1.27;0.43;;;26.10;37.90;;;;;;5091175;28;20452;-50
2021/06/15 09:22:34;;;;;;;1.35;0.40;;;26.10;38.10;;;;;;5085853;28;20032;-52
2021/06/15 09:25:11;;;;;;;1.20;0.40;;;26.10;38.20;;;;;;5075315;28;20043;-46
2021/06/15 09:27:38;;;;;;;3.10;0.40;;;26.00;38.10;;;;;;5075698;28;20032;-52
2021/06/15 09:30:09;;;;;;;3.65;0.50;;;26.10;38.20;;;;;;5095751;28;20086;-55
2021/06/15 09:32:44;;;;;;;5.40;0.65;;;26.10;38.30;;;;;;5095127;28;20107;-54
2021/06/15 09:35:16;;;;;;;2.00;0.55;;;26.10;38.40;;;;;;5094325;28;20127;-56
2021/06/15 09:37:43;;;;;;;0.90;0.30;;;26.10;38.40;;;;;;5087749;28;20032;-50
2021/06/15 09:40:16;;;;;;;1.70;0.40;;;26.10;38.30;;;;;;5095195;28;20036;-53
2021/06/15 09:43:04;;;;;;;2.17;0.80;;;26.10;38.30;;;;;;5092654;28;20036;-52
2021/06/15 09:45:30;;;;;;;0.60;0.30;;;26.20;38.30;;;;;;5073266;28;20468;-51
2021/06/15 09:48:25;;;;;;;0.90;0.60;;;26.10;38.20;;;;;;5089869;28;20032;-53
2021/06/15 09:50:53;;;;;;;0.82;0.40;;;26.20;38.10;;;;;;5095050;28;20393;-54
2021/06/15 09:53:27;;;;;;;0.88;0.30;;;26.20;38.10;;;;;;5091825;28;20024;-52
2021/06/15 09:55:55;;;;;;;1.67;0.52;;;26.20;38.00;;;;;;5094603;28;20043;-53
2021/06/15 09:58:42;;;;;;;0.63;0.43;;;26.20;37.90;;;;;;5094343;28;20114;-52
2021/06/15 10:01:09;;;;;;;1.98;0.50;;;26.20;37.70;;;;;;5094842;28;20343;-52
2021/06/15 10:03:35;;;;;;;1.15;0.40;;;26.20;37.70;;;;;;5086233;28;20024;-52
2021/06/15 10:06:01;;;;;;;0.80;0.38;;;26.20;37.50;;;;;;5074463;28;20025;-49
2021/06/15 10:08:44;;;;;;;0.75;0.40;;;26.30;37.50;;;;;;5090641;28;20028;-48
2021/06/15 10:11:10;;;;;;;1.55;0.45;;;26.30;37.30;;;;;;5077518;28;20044;-53
2021/06/15 10:13:38;;;;;;;1.17;0.50;;;26.30;37.40;;;;;;5080747;28;20032;-51
2021/06/15 10:16:05;;;;;;;0.80;0.30;;;26.30;37.40;;;;;;5091165;28;20036;-53
2021/06/15 10:18:32;;;;;;;1.65;0.50;;;26.30;37.40;;;;;;5093558;28;20048;-50
2021/06/15 10:20:58;;;;;;;0.40;0.30;;;26.30;37.40;;;;;;5094599;28;20321;-50
2021/06/15 10:23:24;;;;;;;1.92;0.17;;;26.30;37.40;;;;;;5076264;28;20082;-48
2021/06/15 10:25:50;;;;;;;0.85;0.30;;;26.30;37.30;;;;;;5076032;28;20436;-48
2021/06/15 10:28:16;;;;;;;0.55;0.40;;;26.30;37.30;;;;;;5094476;28;20047;-49
2021/06/15 10:30:43;;;;;;;0.70;0.30;;;26.30;37.20;;;;;;5093505;28;20028;-51
2021/06/15 10:33:14;;;;;;;0.65;0.30;;;26.30;37.10;;;;;;5091574;28;20032;-48
2021/06/15 10:35:40;;;;;;;0.43;0.20;;;26.40;37.00;;;;;;5094093;28;20039;-48
2021/06/15 10:38:06;;;;;;;0.35;0.20;;;26.40;36.80;;;;;;5094278;28;20023;-53
2021/06/15 10:40:34;;;;;;;0.80;0.35;;;26.40;36.70;;;;;;5090840;28;20520;-57
2021/06/15 10:43:22;;;;;;;1.42;0.40;;;26.40;36.60;;;;;;5081695;28;20124;-54
2021/06/15 10:46:13;;;;;;;0.77;0.30;;;26.50;36.60;;;;;;5083430;28;20515;-49
2021/06/15 10:48:44;;;;;;;1.20;0.60;;;26.50;36.60;;;;;;5075600;28;20059;-53
2021/06/15 10:51:24;;;;;;;1.75;0.30;;;26.40;36.60;;;;;;5085083;28;20036;-52
2021/06/15 10:53:51;;;;;;;0.98;0.38;;;26.50;36.60;;;;;;5076453;28;20068;-50
2021/06/15 10:56:20;;;;;;;2.45;0.47;;;26.40;36.50;;;;;;5083193;28;20031;-54
2021/06/15 10:59:04;;;;;;;1.33;0.30;;;26.50;36.60;;;;;;5078488;28;20416;-52
2021/06/15 11:01:32;;;;;;;2.00;0.40;;;26.50;36.50;;;;;;5083946;28;20450;-51
2021/06/15 11:04:12;;;;;;;0.47;0.20;;;26.50;36.50;;;;;;5075028;28;20417;-50
2021/06/15 11:06:52;;;;;;;1.75;0.43;;;26.50;36.50;;;;;;5081944;28;20097;-55
2021/06/15 11:09:23;;;;;;;0.88;0.40;;;26.50;36.40;;;;;;5088549;28;20032;-52
2021/06/15 11:11:59;;;;;;;1.05;0.30;;;26.60;36.50;;;;;;5083820;28;20055;-56
2021/06/15 11:14:24;;;;;;;1.52;0.47;;;26.60;37.10;;;;;;5076392;28;20055;-57
2021/06/15 11:16:57;;;;;;;1.05;0.40;;;26.50;36.40;;;;;;5080613;28;20095;-55
2021/06/15 11:19:23;;;;;;;0.55;0.30;;;26.60;36.60;;;;;;5076874;28;20131;-58
2021/06/15 11:22:04;;;;;;;2.05;0.30;;;26.60;36.70;;;;;;5088904;28;20111;-52
2021/06/15 11:24:39;;;;;;;1.15;0.40;;;26.60;36.70;;;;;;5086778;28;20028;-51
2021/06/15 11:27:16;;;;;;;1.73;0.63;;;26.70;37.00;;;;;;5090395;28;20028;-45
2021/06/15 11:29:44;;;;;;;1.25;0.30;;;26.70;37.10;;;;;;5088301;28;20024;-48
2021/06/15 11:32:17;;;;;;;1.02;0.30;;;26.70;37.10;;;;;;5082929;28;20124;-46
2021/06/15 11:35:04;;;;;;;1.30;0.30;;;26.70;37.00;;;;;;5090466;28;20032;-51
2021/06/15 11:37:41;;;;;;;1.20;0.40;;;26.80;37.00;;;;;;5071705;28;20413;-52
2021/06/15 11:40:21;;;;;;;1.40;0.30;;;26.80;37.00;;;;;;5086613;28;20047;-50
2021/06/15 11:42:49;;;;;;;0.43;0.30;;;26.80;36.90;;;;;;5083693;28;20450;-52
2021/06/15 11:45:18;;;;;;;1.60;0.40;;;26.80;37.00;;;;;;5085041;28;20024;-48
2021/06/15 11:47:47;;;;;;;1.23;0.35;;;26.80;37.10;;;;;;5081334;28;20375;-49
2021/06/15 11:50:33;;;;;;;1.15;0.30;;;26.90;37.10;;;;;;5081881;28;20036;-50
2021/06/15 11:53:08;;;;;;;0.90;0.40;;;26.90;37.10;;;;;;5075259;28;20077;-45
2021/06/15 11:55:40;;;;;;;0.40;0.30;;;26.90;37.00;;;;;;5085166;28;20119;-49
2021/06/15 11:58:07;;;;;;;0.80;0.30;;;27.00;37.00;;;;;;5089235;28;20113;-45
2021/06/15 12:00:38;;;;;;;0.77;0.40;;;27.00;37.00;;;;;;5091537;28;20032;-49
2021/06/15 12:03:18;;;;;;;1.38;0.50;;;27.00;36.90;;;;;;5088607;28;20032;-46
2021/06/15 12:05:56;;;;;;;1.10;0.60;;;27.00;36.90;;;;;;5086990;28;20116;-49
2021/06/15 12:08:27;;;;;;;2.45;0.43;;;27.10;37.00;;;;;;5087464;28;20024;-65
2021/06/15 12:10:53;;;;;;;3.22;0.95;;;27.10;37.10;;;;;;5082574;28;20440;-47
2021/06/15 12:13:21;;;;;;;2.10;0.73;;;27.20;37.20;;;;;;5087960;28;20073;-47
2021/06/15 12:15:51;;;;;;;1.98;0.60;;;27.20;37.10;;;;;;5085929;28;20039;-49
2021/06/15 12:18:23;;;;;;;1.50;0.80;;;27.30;37.00;;;;;;5078113;28;20120;-47
2021/06/15 12:20:55;;;;;;;2.58;0.70;;;27.30;36.80;;;;;;5087638;28;20023;-46
2021/06/15 12:23:26;;;;;;;1.67;0.93;;;27.30;36.80;;;;;;5093462;28;20088;-47
2021/06/15 12:25:54;;;;;;;1.50;1.00;;;27.30;36.70;;;;;;5089910;28;20036;-49
2021/06/15 12:28:22;;;;;;;2.10;1.58;;;27.30;36.60;;;;;;5085582;28;20099;-47
2021/06/15 12:31:01;;;;;;;2.40;1.58;;;27.30;36.60;;;;;;5080251;28;20028;-50
2021/06/15 12:33:27;;;;;;;2.22;1.60;;;27.30;36.40;;;;;;5076587;28;20032;-46
2021/06/15 12:36:04;;;;;;;2.22;1.65;;;27.30;36.50;;;;;;5089568;28;20183;-48
2021/06/15 12:38:30;;;;;;;3.65;1.75;;;27.30;36.40;;;;;;5090814;28;20343;-47
2021/06/15 12:40:57;;;;;;;2.10;1.67;;;27.30;36.40;;;;;;5085377;28;20136;-53
2021/06/15 12:43:28;;;;;;;3.08;1.88;;;27.30;36.40;;;;;;5077825;28;20108;-49
2021/06/15 12:46:19;;;;;;;3.38;2.13;;;27.40;36.50;;;;;;5081121;28;20120;-56
2021/06/15 12:48:51;;;;;;;4.75;2.35;;;27.40;36.40;;;;;;5085010;28;20020;-54
2021/06/15 12:51:23;;;;;;;4.47;2.35;;;27.40;36.80;;;;;;5089460;28;20036;-48
2021/06/15 12:53:49;;;;;;;3.22;2.50;;;27.40;37.00;;;;;;5087538;28;20036;-48
2021/06/15 12:56:20;;;;;;;3.83;2.60;;;27.40;37.10;;;;;;5087189;28;20055;-47
2021/06/15 12:58:47;;;;;;;3.67;2.53;;;27.40;37.10;;;;;;5083096;28;20020;-47
2021/06/15 13:01:18;;;;;;;3.67;2.38;;;27.40;37.10;;;;;;5087833;28;20032;-47
2021/06/15 13:03:49;;;;;;;4.22;2.90;;;27.50;37.10;;;;;;5080513;28;20048;-54
2021/06/15 13:06:16;;;;;;;3.80;2.67;;;27.50;37.00;;;;;;5081997;28;20040;-55
2021/06/15 13:08:42;;;;;;;4.18;3.08;;;27.50;37.00;;;;;;5080282;28;20028;-51